CFBEE CYLI-CYPS
Flight info
| Callsign | CFBEE |
|---|---|
| Flight time | 0h 23m |
| Altitude | 6000 |
| Route | DCT |
| Aircraft | C208/L-SDFGR/C |
Departure
| Time | 2026-04-15 14:48 |
|---|---|
| Airport | Lillooet Airport (CYLI) |
Arrival
| Time | 2026-04-15 15:11 |
|---|---|
| Airport | Pemberton Regional Airport (CYPS) |
| Time | Latitude | Longitude | Altitude | Speed | Heading |
|---|---|---|---|---|---|
| 2026-04-15 14:41 | 50.67008 | -121.88870 | 1391 ft | 0 kts | 165° |
| 2026-04-15 14:46 | 50.67007 | -121.88869 | 1391 ft | 2 kts | 165° |
| 2026-04-15 14:46 | 50.67002 | -121.88903 | 1382 ft | 10 kts | 339° |
| 2026-04-15 14:47 | 50.67032 | -121.89023 | 1377 ft | 17 kts | 252° |
| 2026-04-15 14:47 | 50.67152 | -121.89125 | 1371 ft | 42 kts | 345° |
| 2026-04-15 14:47 | 50.67581 | -121.89318 | 1398 ft | 81 kts | 343° |
| 2026-04-15 14:47 | 50.68131 | -121.89592 | 1631 ft | 85 kts | 342° |
| 2026-04-15 14:48 | 50.68708 | -121.89866 | 1872 ft | 89 kts | 339° |
| 2026-04-15 14:48 | 50.69220 | -121.90581 | 2009 ft | 108 kts | 296° |
| 2026-04-15 14:48 | 50.69161 | -121.91672 | 2403 ft | 104 kts | 243° |
| 2026-04-15 14:48 | 50.68846 | -121.92435 | 2695 ft | 101 kts | 234° |
| 2026-04-15 14:49 | 50.68468 | -121.93295 | 2991 ft | 101 kts | 238° |
| 2026-04-15 14:49 | 50.68071 | -121.94210 | 3291 ft | 101 kts | 237° |
| 2026-04-15 14:49 | 50.67683 | -121.95132 | 3607 ft | 101 kts | 236° |
| 2026-04-15 14:49 | 50.67300 | -121.96045 | 3902 ft | 100 kts | 236° |
| 2026-04-15 14:50 | 50.66909 | -121.96979 | 4172 ft | 104 kts | 237° |
| 2026-04-15 14:50 | 50.66501 | -121.97945 | 4455 ft | 108 kts | 237° |
| 2026-04-15 14:50 | 50.66034 | -121.98884 | 4744 ft | 110 kts | 230° |
| 2026-04-15 14:50 | 50.65547 | -121.99811 | 4984 ft | 110 kts | 231° |
| 2026-04-15 14:51 | 50.65048 | -122.00740 | 5181 ft | 112 kts | 231° |
| 2026-04-15 14:51 | 50.64476 | -122.01560 | 5376 ft | 112 kts | 215° |
| 2026-04-15 14:51 | 50.63810 | -122.02224 | 5639 ft | 114 kts | 212° |
| 2026-04-15 14:51 | 50.63094 | -122.02794 | 5986 ft | 117 kts | 203° |
| 2026-04-15 14:52 | 50.62280 | -122.03293 | 6170 ft | 130 kts | 201° |
| 2026-04-15 14:52 | 50.61437 | -122.03805 | 6589 ft | 129 kts | 201° |
| 2026-04-15 14:52 | 50.60606 | -122.04297 | 6982 ft | 127 kts | 202° |
| 2026-04-15 14:52 | 50.59786 | -122.04958 | 6999 ft | 140 kts | 227° |
| 2026-04-15 14:53 | 50.59197 | -122.06247 | 7017 ft | 152 kts | 237° |
| 2026-04-15 14:53 | 50.58589 | -122.07643 | 7128 ft | 155 kts | 236° |
| 2026-04-15 14:53 | 50.57983 | -122.09021 | 7354 ft | 150 kts | 236° |
| 2026-04-15 14:53 | 50.57407 | -122.10320 | 7603 ft | 143 kts | 235° |
| 2026-04-15 14:54 | 50.56849 | -122.11576 | 7854 ft | 138 kts | 236° |
| 2026-04-15 14:54 | 50.56308 | -122.12789 | 8119 ft | 134 kts | 236° |
| 2026-04-15 14:54 | 50.55776 | -122.13974 | 8381 ft | 132 kts | 236° |
| 2026-04-15 14:54 | 50.55257 | -122.15142 | 8630 ft | 129 kts | 236° |
| 2026-04-15 14:55 | 50.54742 | -122.16307 | 8897 ft | 130 kts | 235° |
| 2026-04-15 14:55 | 50.54228 | -122.17468 | 9162 ft | 128 kts | 236° |
| 2026-04-15 14:55 | 50.53729 | -122.18599 | 9432 ft | 124 kts | 236° |
| 2026-04-15 14:55 | 50.53234 | -122.19704 | 9691 ft | 125 kts | 236° |
| 2026-04-15 14:56 | 50.52702 | -122.20892 | 9714 ft | 140 kts | 236° |
| 2026-04-15 14:56 | 50.52110 | -122.22200 | 9197 ft | 153 kts | 236° |
| 2026-04-15 14:56 | 50.51504 | -122.23578 | 9323 ft | 154 kts | 236° |
| 2026-04-15 14:56 | 50.50902 | -122.24980 | 9451 ft | 156 kts | 236° |
| 2026-04-15 14:57 | 50.50295 | -122.26393 | 9580 ft | 157 kts | 236° |
| 2026-04-15 14:57 | 50.49687 | -122.27810 | 9926 ft | 159 kts | 236° |
| 2026-04-15 14:57 | 50.49038 | -122.29297 | 10172 ft | 166 kts | 236° |
| 2026-04-15 14:57 | 50.48385 | -122.30763 | 10285 ft | 163 kts | 236° |
| 2026-04-15 14:58 | 50.47734 | -122.32213 | 10390 ft | 161 kts | 236° |
| 2026-04-15 14:58 | 50.47084 | -122.33654 | 10495 ft | 162 kts | 236° |
| 2026-04-15 14:58 | 50.46423 | -122.35119 | 10500 ft | 167 kts | 236° |
| 2026-04-15 14:58 | 50.45748 | -122.36621 | 10503 ft | 170 kts | 236° |
| 2026-04-15 14:59 | 50.45061 | -122.38139 | 10506 ft | 171 kts | 236° |
| 2026-04-15 14:59 | 50.44373 | -122.39669 | 10508 ft | 173 kts | 236° |
| 2026-04-15 14:59 | 50.43680 | -122.41220 | 10518 ft | 174 kts | 236° |
| 2026-04-15 14:59 | 50.42986 | -122.42766 | 10517 ft | 173 kts | 236° |
| 2026-04-15 15:00 | 50.42296 | -122.44310 | 10515 ft | 173 kts | 236° |
| 2026-04-15 15:00 | 50.41598 | -122.45858 | 10516 ft | 174 kts | 236° |
| 2026-04-15 15:00 | 50.40899 | -122.47406 | 10510 ft | 173 kts | 236° |
| 2026-04-15 15:00 | 50.40205 | -122.48945 | 10513 ft | 173 kts | 236° |
| 2026-04-15 15:01 | 50.39515 | -122.50477 | 10509 ft | 171 kts | 236° |
| 2026-04-15 15:01 | 50.38830 | -122.52003 | 10508 ft | 171 kts | 236° |
| 2026-04-15 15:01 | 50.38143 | -122.53531 | 10511 ft | 173 kts | 236° |
| 2026-04-15 15:01 | 50.37447 | -122.55077 | 10518 ft | 174 kts | 236° |
| 2026-04-15 15:02 | 50.36751 | -122.56629 | 10515 ft | 174 kts | 236° |
| 2026-04-15 15:02 | 50.36056 | -122.58174 | 10517 ft | 174 kts | 236° |
| 2026-04-15 15:02 | 50.35360 | -122.59719 | 10516 ft | 174 kts | 236° |
| 2026-04-15 15:02 | 50.34662 | -122.61270 | 10517 ft | 174 kts | 236° |
| 2026-04-15 15:03 | 50.33962 | -122.62815 | 10518 ft | 174 kts | 236° |
| 2026-04-15 15:03 | 50.33277 | -122.64342 | 10514 ft | 174 kts | 236° |
| 2026-04-15 15:03 | 50.32579 | -122.65884 | 10514 ft | 173 kts | 236° |
| 2026-04-15 15:03 | 50.31881 | -122.67421 | 10515 ft | 173 kts | 236° |
| 2026-04-15 15:04 | 50.31183 | -122.68957 | 10519 ft | 173 kts | 236° |
| 2026-04-15 15:04 | 50.30515 | -122.70434 | 10492 ft | 152 kts | 237° |
| 2026-04-15 15:04 | 50.29929 | -122.71724 | 10264 ft | 143 kts | 235° |
| 2026-04-15 15:04 | 50.29106 | -122.72519 | 9974 ft | 145 kts | 188° |
| 2026-04-15 15:05 | 50.28175 | -122.72012 | 9699 ft | 148 kts | 136° |
| 2026-04-15 15:05 | 50.27830 | -122.70558 | 9392 ft | 147 kts | 83° |
| 2026-04-15 15:05 | 50.28323 | -122.69217 | 9040 ft | 146 kts | 32° |
| 2026-04-15 15:05 | 50.29282 | -122.68941 | 8700 ft | 142 kts | 347° |
| 2026-04-15 15:06 | 50.31191 | -122.69681 | 8024 ft | 139 kts | 344° |
| 2026-04-15 15:06 | 50.32130 | -122.70058 | 7601 ft | 139 kts | 344° |
| 2026-04-15 15:06 | 50.33072 | -122.70431 | 7185 ft | 140 kts | 343° |
| 2026-04-15 15:07 | 50.33981 | -122.70937 | 6756 ft | 139 kts | 322° |
| 2026-04-15 15:07 | 50.34450 | -122.72178 | 6367 ft | 137 kts | 285° |
| 2026-04-15 15:07 | 50.34714 | -122.73643 | 5943 ft | 137 kts | 284° |
| 2026-04-15 15:07 | 50.34835 | -122.75112 | 5521 ft | 136 kts | 270° |
| 2026-04-15 15:08 | 50.34846 | -122.76589 | 5004 ft | 136 kts | 266° |
| 2026-04-15 15:08 | 50.34700 | -122.77956 | 4512 ft | 136 kts | 257° |
| 2026-04-15 15:08 | 50.34504 | -122.79382 | 4090 ft | 137 kts | 257° |
| 2026-04-15 15:08 | 50.34231 | -122.80798 | 3762 ft | 136 kts | 236° |
| 2026-04-15 15:09 | 50.33446 | -122.81514 | 3424 ft | 135 kts | 183° |
| 2026-04-15 15:09 | 50.32518 | -122.81344 | 3029 ft | 134 kts | 172° |
| 2026-04-15 15:09 | 50.31671 | -122.80802 | 2600 ft | 134 kts | 140° |
| 2026-04-15 15:09 | 50.31024 | -122.79867 | 2485 ft | 116 kts | 139° |
| 2026-04-15 15:10 | 50.30468 | -122.79054 | 2252 ft | 110 kts | 134° |
| 2026-04-15 15:10 | 50.30063 | -122.78017 | 1853 ft | 109 kts | 107° |
| 2026-04-15 15:10 | 50.29990 | -122.76890 | 1414 ft | 100 kts | 88° |
| 2026-04-15 15:10 | 50.30073 | -122.75851 | 998 ft | 93 kts | 83° |
| 2026-04-15 15:11 | 50.30145 | -122.74895 | 720 ft | 83 kts | 83° |
| 2026-04-15 15:11 | 50.30195 | -122.74168 | 657 ft | 31 kts | 85° |
| 2026-04-15 15:11 | 50.30224 | -122.73995 | 659 ft | 15 kts | 5° |
| 2026-04-15 15:11 | 50.30297 | -122.74006 | 660 ft | 9 kts | 358° |
| 2026-04-15 15:12 | 50.30308 | -122.73975 | 660 ft | 0 kts | 84° |